createdAt,value
2023-04-10T00:01:02.882Z,10.47
2023-04-10T00:03:31.486Z,13.13
2023-04-10T00:05:59.531Z,10.30
2023-04-10T00:08:27.322Z,10.73
2023-04-10T00:10:57.076Z,10.73
2023-04-10T00:13:24.832Z,11.10
2023-04-10T00:15:52.625Z,11.50
2023-04-10T00:18:20.463Z,10.50
2023-04-10T00:20:48.299Z,10.87
2023-04-10T00:23:16.057Z,11.40
2023-04-10T00:25:43.858Z,10.77
2023-04-10T00:28:12.962Z,11.30
2023-04-10T00:30:40.851Z,10.47
2023-04-10T00:33:08.658Z,10.40
2023-04-10T00:35:36.600Z,10.77
2023-04-10T00:38:04.377Z,10.93
2023-04-10T00:40:32.191Z,9.43
2023-04-10T00:42:59.914Z,10.57
2023-04-10T00:45:29.146Z,9.67
2023-04-10T00:47:57.621Z,11.17
2023-04-10T00:50:25.717Z,10.37
2023-04-10T00:52:54.173Z,9.47
2023-04-10T00:55:22.015Z,9.20
2023-04-10T00:57:50.009Z,10.87
2023-04-10T01:00:18.762Z,9.23
2023-04-10T01:02:50.654Z,9.37
2023-04-10T01:05:18.681Z,10.23
2023-04-10T01:07:59.607Z,10.30
2023-04-10T01:10:35.678Z,9.20
2023-04-10T01:13:12.757Z,9.43
2023-04-10T01:15:48.866Z,9.67
2023-04-10T01:18:24.000Z,9.53
2023-04-10T01:20:51.733Z,9.70
2023-04-10T01:23:45.943Z,8.93
2023-04-10T01:26:17.369Z,8.97
2023-04-10T01:28:54.226Z,8.80
2023-04-10T01:31:28.427Z,10.43
2023-04-10T01:34:01.169Z,10.03
2023-04-10T01:36:37.951Z,9.07
2023-04-10T01:39:07.876Z,8.70
2023-04-10T01:41:36.984Z,9.13
2023-04-10T01:44:08.370Z,8.90
2023-04-10T01:46:39.156Z,9.07
2023-04-10T01:49:07.957Z,8.90
2023-04-10T01:51:36.660Z,9.90
2023-04-10T01:54:10.498Z,8.47
2023-04-10T01:56:39.220Z,8.40
2023-04-10T01:59:09.013Z,8.77
2023-04-10T02:01:37.038Z,8.37
2023-04-10T02:04:05.088Z,8.30
2023-04-10T02:06:42.640Z,8.87
2023-04-10T02:09:18.087Z,8.80
2023-04-10T02:11:55.762Z,7.93
2023-04-10T02:14:28.469Z,8.97
2023-04-10T02:16:57.430Z,8.53
2023-04-10T02:19:28.083Z,8.40
2023-04-10T02:21:56.911Z,8.50
2023-04-10T02:24:24.860Z,8.80
2023-04-10T02:26:53.745Z,8.63
2023-04-10T02:29:21.618Z,8.90
2023-04-10T02:31:53.090Z,8.60
2023-04-10T02:34:20.949Z,8.37
2023-04-10T02:36:48.772Z,9.00
2023-04-10T02:39:16.704Z,8.67
2023-04-10T02:41:50.613Z,8.83
2023-04-10T02:44:18.660Z,9.23
2023-04-10T02:46:46.591Z,8.67
2023-04-10T02:49:16.540Z,9.03
2023-04-10T02:51:45.604Z,8.80
2023-04-10T02:54:13.352Z,9.03
2023-04-10T02:56:43.137Z,8.57
2023-04-10T02:59:10.933Z,8.97
2023-04-10T03:01:39.427Z,8.97
2023-04-10T03:04:07.687Z,9.57
2023-04-10T03:06:41.036Z,9.23
2023-04-10T03:09:08.896Z,8.87
2023-04-10T03:11:36.825Z,8.37
2023-04-10T03:14:05.596Z,8.63
2023-04-10T03:16:33.617Z,8.70
2023-04-10T03:19:04.409Z,7.93
2023-04-10T03:21:32.377Z,8.97
2023-04-10T03:24:02.725Z,7.63
2023-04-10T03:26:30.712Z,8.57
2023-04-10T03:28:58.631Z,8.20
2023-04-10T03:31:26.424Z,8.53
2023-04-10T03:33:57.836Z,8.83
2023-04-10T03:36:27.409Z,8.67
2023-04-10T03:38:55.285Z,8.53
2023-04-10T03:41:25.557Z,8.23
2023-04-10T03:43:53.936Z,8.37
2023-04-10T03:46:22.715Z,8.10
2023-04-10T03:48:52.803Z,8.20
2023-04-10T03:51:23.416Z,8.70
2023-04-10T03:53:52.269Z,8.23
2023-04-10T03:56:20.498Z,7.97
2023-04-10T03:58:49.787Z,8.80
2023-04-10T04:01:17.691Z,8.73
2023-04-10T04:03:58.949Z,7.80
2023-04-10T04:06:48.667Z,7.73
2023-04-10T04:09:48.757Z,8.40
2023-04-10T04:12:16.487Z,8.10
2023-04-10T04:15:12.157Z,7.80
2023-04-10T04:17:48.927Z,8.03
2023-04-10T04:20:40.065Z,8.77
2023-04-10T04:23:34.288Z,8.40
2023-04-10T04:26:27.590Z,8.67
2023-04-10T04:29:14.053Z,7.67
2023-04-10T04:32:03.540Z,9.40
2023-04-10T04:34:49.978Z,8.50
2023-04-10T04:37:33.361Z,8.53
2023-04-10T04:40:37.686Z,7.63
2023-04-10T04:43:11.892Z,7.70
2023-04-10T04:46:02.503Z,7.90
2023-04-10T04:49:00.820Z,7.60
2023-04-10T04:51:38.167Z,7.47
2023-04-10T04:54:10.443Z,7.87
2023-04-10T04:56:56.831Z,7.77
2023-04-10T04:59:44.871Z,7.80
2023-04-10T05:02:38.932Z,7.37
2023-04-10T05:05:18.132Z,7.70
2023-04-10T05:07:52.450Z,7.40
2023-04-10T05:10:39.348Z,7.93
2023-04-10T05:13:30.314Z,7.60
2023-04-10T05:16:14.395Z,7.20
2023-04-10T05:19:01.311Z,7.27
2023-04-10T05:21:54.464Z,6.93
2023-04-10T05:24:42.556Z,7.63
2023-04-10T05:27:16.342Z,7.53
2023-04-10T05:30:04.508Z,8.00
2023-04-10T05:32:42.749Z,7.67
2023-04-10T05:35:19.790Z,7.43
2023-04-10T05:38:13.480Z,7.87
2023-04-10T05:40:46.759Z,7.83
2023-04-10T05:43:33.144Z,7.40
2023-04-10T05:46:21.257Z,7.37
2023-04-10T05:49:22.450Z,7.23
2023-04-10T05:52:08.838Z,7.83
2023-04-10T05:54:56.723Z,7.17
2023-04-10T05:57:33.366Z,7.53
2023-04-10T06:00:19.171Z,7.80
2023-04-10T06:03:07.049Z,7.90
2023-04-10T06:05:45.894Z,7.77
2023-04-10T06:08:13.700Z,7.23
2023-04-10T06:10:44.392Z,6.67
2023-04-10T06:13:12.666Z,7.37
2023-04-10T06:15:40.634Z,6.80
2023-04-10T06:18:09.125Z,7.13
2023-04-10T06:20:38.560Z,8.13
2023-04-10T06:23:06.883Z,7.50
2023-04-10T06:25:34.775Z,8.33
2023-04-10T06:28:03.983Z,7.50
2023-04-10T06:30:33.913Z,8.10
2023-04-10T06:33:02.399Z,8.07
2023-04-10T06:35:32.814Z,7.57
2023-04-10T06:38:00.727Z,7.93
2023-04-10T06:40:30.926Z,6.87
2023-04-10T06:42:58.690Z,6.70
2023-04-10T06:45:36.816Z,7.53
2023-04-10T06:48:04.981Z,6.23
2023-04-10T06:50:33.532Z,7.57
2023-04-10T06:53:01.558Z,6.83
2023-04-10T06:55:29.456Z,7.40
2023-04-10T06:57:57.592Z,7.17
2023-04-10T07:00:25.836Z,8.20
2023-04-10T07:02:55.273Z,6.70
2023-04-10T07:05:23.685Z,7.23
2023-04-10T07:07:51.775Z,6.83
2023-04-10T07:10:19.614Z,7.03
2023-04-10T07:12:47.453Z,7.07
2023-04-10T07:15:15.251Z,6.93
2023-04-10T07:17:43.210Z,6.20
2023-04-10T07:20:13.236Z,13.17
2023-04-10T07:22:41.206Z,6.70
2023-04-10T07:25:10.055Z,6.50
2023-04-10T07:27:37.836Z,6.93
2023-04-10T07:30:06.850Z,6.77
2023-04-10T07:32:35.288Z,7.10
2023-04-10T07:35:03.190Z,7.33
2023-04-10T07:37:32.315Z,8.63
2023-04-10T07:40:00.538Z,6.23
2023-04-10T07:42:28.286Z,7.30
2023-04-10T07:44:56.114Z,7.20
2023-04-10T07:47:23.890Z,7.47
2023-04-10T07:49:52.309Z,7.30
2023-04-10T07:52:20.032Z,8.00
2023-04-10T07:54:49.236Z,7.50
2023-04-10T07:57:17.521Z,7.13
2023-04-10T07:59:45.387Z,8.37
2023-04-10T08:02:13.310Z,7.30
2023-04-10T08:04:43.244Z,7.53
2023-04-10T08:07:11.104Z,7.47
2023-04-10T08:09:38.892Z,7.33
2023-04-10T08:12:08.184Z,7.73
2023-04-10T08:14:35.936Z,7.57
2023-04-10T08:17:03.852Z,7.37
2023-04-10T08:19:31.808Z,7.00
2023-04-10T08:21:59.697Z,7.03
2023-04-10T08:24:27.583Z,7.90
2023-04-10T08:26:55.363Z,7.60
2023-04-10T08:32:00.533Z,6.43
2023-04-10T08:34:28.441Z,6.67
2023-04-10T08:37:12.322Z,6.30
2023-04-10T08:39:40.517Z,6.60
2023-04-10T08:42:08.720Z,6.27
2023-04-10T08:44:39.104Z,6.17
2023-04-10T08:47:07.918Z,5.80
2023-04-10T08:49:44.890Z,5.90
2023-04-10T08:52:16.850Z,5.73
2023-04-10T08:54:49.070Z,6.33
2023-04-10T08:57:20.630Z,5.97
2023-04-10T08:59:51.553Z,6.10
2023-04-10T09:02:20.110Z,6.07
2023-04-10T09:04:50.301Z,5.70
2023-04-10T09:07:18.575Z,5.80
2023-04-10T09:09:46.396Z,5.50
2023-04-10T09:12:15.560Z,5.90
2023-04-10T09:14:44.139Z,5.70
2023-04-10T09:17:15.762Z,5.87
2023-04-10T09:19:44.926Z,6.37
2023-04-10T09:22:13.203Z,6.00
2023-04-10T09:24:43.187Z,5.63
2023-04-10T09:27:11.852Z,5.57
2023-04-10T09:29:42.506Z,5.60
2023-04-10T09:32:10.494Z,5.23
2023-04-10T09:34:54.614Z,5.67
2023-04-10T09:37:22.756Z,5.80
2023-04-10T09:39:50.709Z,5.80
2023-04-10T09:42:31.367Z,5.20
2023-04-10T09:44:59.550Z,5.60
2023-04-10T09:47:27.396Z,5.67
2023-04-10T09:50:00.233Z,5.50
2023-04-10T09:52:29.547Z,6.10
2023-04-10T09:54:58.971Z,4.77
2023-04-10T09:57:30.748Z,5.70
2023-04-10T09:59:59.966Z,5.10
2023-04-10T10:02:31.399Z,4.80
2023-04-10T10:05:01.732Z,10.10
2023-04-10T10:07:31.635Z,4.77
2023-04-10T10:09:59.837Z,5.80
2023-04-10T10:12:35.231Z,5.30
2023-04-10T10:15:10.151Z,5.30
2023-04-10T10:17:43.346Z,5.13
2023-04-10T10:20:14.492Z,4.60
2023-04-10T10:22:43.280Z,4.90
2023-04-10T10:25:11.862Z,4.93
2023-04-10T10:27:41.138Z,5.10
2023-04-10T10:30:28.359Z,4.47
2023-04-10T10:32:58.876Z,4.40
2023-04-10T10:35:29.947Z,4.83
2023-04-10T10:38:00.270Z,4.10
2023-04-10T10:40:33.468Z,4.20
2023-04-10T10:43:14.668Z,4.10
2023-04-10T10:45:49.365Z,4.67
2023-04-10T10:48:17.230Z,4.40
2023-04-10T10:50:58.837Z,4.50
2023-04-10T10:53:36.172Z,4.47
2023-04-10T10:56:34.455Z,4.43
2023-04-10T10:59:02.998Z,3.77
2023-04-10T11:01:30.848Z,3.87
2023-04-10T11:03:59.996Z,3.80
2023-04-10T11:06:52.298Z,4.10
2023-04-10T11:09:48.739Z,4.03
2023-04-10T11:12:17.407Z,3.47
2023-04-10T11:14:46.296Z,3.47
2023-04-10T11:17:14.151Z,3.17
2023-04-10T11:20:01.824Z,3.23
2023-04-10T11:22:31.319Z,3.77
2023-04-10T11:25:02.449Z,3.60
2023-04-10T11:27:46.270Z,3.30
2023-04-10T11:30:30.639Z,3.40
2023-04-10T11:32:59.219Z,4.10
2023-04-10T11:35:28.266Z,3.40
2023-04-10T11:38:27.778Z,3.57
2023-04-10T11:41:04.248Z,2.90
2023-04-10T11:43:32.546Z,3.50
2023-04-10T11:46:05.296Z,3.70
2023-04-10T11:48:33.667Z,3.10
2023-04-10T11:51:08.582Z,2.90
2023-04-10T11:53:38.368Z,3.23
2023-04-10T11:56:07.732Z,3.47
2023-04-10T11:58:35.521Z,3.33
2023-04-10T12:01:04.503Z,3.17
2023-04-10T12:03:37.500Z,3.20
2023-04-10T12:06:08.836Z,3.10
2023-04-10T12:08:39.629Z,3.03
2023-04-10T12:11:08.430Z,3.20
2023-04-10T12:13:36.964Z,3.20
2023-04-10T12:16:07.854Z,3.30
2023-04-10T12:18:36.167Z,3.23
2023-04-10T12:21:07.476Z,3.40
2023-04-10T12:23:40.135Z,3.20
2023-04-10T12:26:15.746Z,2.90
2023-04-10T12:28:50.388Z,3.00
2023-04-10T12:31:18.435Z,3.13
2023-04-10T12:33:47.298Z,3.20
2023-04-10T12:36:22.377Z,3.20
2023-04-10T12:38:51.884Z,3.03
2023-04-10T12:41:27.088Z,3.70
2023-04-10T12:44:07.471Z,3.37
2023-04-10T12:46:36.480Z,3.23
2023-04-10T12:49:12.047Z,2.60
2023-04-10T12:51:47.384Z,3.00
2023-04-10T12:54:33.487Z,2.90
2023-04-10T12:57:05.204Z,2.60
2023-04-10T12:59:33.716Z,3.10
2023-04-10T13:02:01.747Z,2.40
2023-04-10T13:04:33.028Z,2.73
2023-04-10T13:07:01.191Z,2.50
2023-04-10T13:09:29.007Z,3.10
2023-04-10T13:11:58.385Z,2.70
2023-04-10T13:14:26.210Z,3.07
2023-04-10T13:16:53.989Z,2.77
2023-04-10T13:19:21.748Z,3.03
2023-04-10T13:21:50.726Z,3.23
2023-04-10T13:24:18.536Z,3.13
2023-04-10T13:26:46.428Z,3.80
2023-04-10T13:29:15.732Z,2.90
2023-04-10T13:31:43.536Z,3.10
2023-04-10T13:34:11.608Z,3.10
2023-04-10T13:36:39.799Z,2.90
2023-04-10T13:39:07.717Z,3.03
2023-04-10T13:41:35.932Z,3.03
2023-04-10T13:44:03.770Z,2.50
2023-04-10T13:46:34.072Z,3.30
2023-04-10T13:49:02.194Z,3.43
2023-04-10T13:51:30.052Z,3.30
2023-04-10T13:53:58.835Z,2.90
2023-04-10T13:56:26.828Z,2.90
2023-04-10T13:58:54.768Z,3.43
2023-04-10T14:01:23.149Z,3.07
2023-04-10T14:03:52.477Z,2.90
2023-04-10T14:06:20.315Z,3.10
2023-04-10T14:08:48.170Z,2.83
2023-04-10T14:11:16.725Z,2.70
2023-04-10T14:13:44.491Z,2.97
2023-04-10T14:16:13.012Z,2.87
2023-04-10T14:18:41.556Z,2.80
2023-04-10T14:21:13.564Z,2.80
2023-04-10T14:23:42.294Z,3.40
2023-04-10T14:26:10.149Z,2.90
2023-04-10T14:28:38.322Z,3.03
2023-04-10T14:31:08.043Z,3.27
2023-04-10T14:33:36.195Z,3.20
2023-04-10T14:36:04.317Z,3.23
2023-04-10T14:38:34.151Z,3.03
2023-04-10T14:41:02.091Z,2.87
2023-04-10T14:43:29.893Z,2.50
2023-04-10T14:45:57.688Z,2.67
2023-04-10T14:48:26.242Z,2.77
2023-04-10T14:50:54.982Z,2.80
2023-04-10T14:53:23.331Z,2.70
2023-04-10T14:55:52.787Z,2.70
2023-04-10T14:58:20.681Z,2.43
2023-04-10T15:00:50.712Z,2.57
2023-04-10T15:03:19.141Z,3.20
2023-04-10T15:05:47.259Z,2.60
2023-04-10T15:08:15.541Z,2.57
2023-04-10T15:10:43.389Z,2.93
2023-04-10T15:13:12.708Z,2.37
2023-04-10T15:15:43.401Z,3.00
2023-04-10T15:18:11.287Z,2.70
2023-04-10T15:20:39.268Z,2.77
2023-04-10T15:23:07.426Z,2.67
2023-04-10T15:25:35.907Z,3.10
2023-04-10T15:28:03.819Z,2.60
2023-04-10T15:30:33.550Z,2.50
2023-04-10T15:33:01.905Z,2.87
2023-04-10T15:35:30.513Z,2.73
2023-04-10T15:37:58.734Z,2.77
2023-04-10T15:40:26.921Z,2.90
2023-04-10T15:42:55.042Z,3.20
2023-04-10T15:45:23.345Z,3.10
2023-04-10T15:47:52.952Z,3.20
2023-04-10T15:50:20.835Z,2.80
2023-04-10T15:52:48.594Z,3.40
2023-04-10T15:55:17.086Z,3.53
2023-04-10T15:57:45.442Z,3.30
2023-04-10T16:00:14.685Z,2.97
2023-04-10T16:02:42.837Z,3.00
2023-04-10T16:05:12.314Z,3.10
2023-04-10T16:07:42.194Z,2.97
2023-04-10T16:10:11.527Z,3.03
2023-04-10T16:12:39.539Z,2.80
2023-04-10T16:15:09.052Z,3.00
2023-04-10T16:17:36.912Z,2.43
2023-04-10T16:20:06.844Z,3.00
2023-04-10T16:22:36.864Z,2.97
2023-04-10T16:25:05.254Z,3.43
2023-04-10T16:27:35.693Z,3.03
2023-04-10T16:30:05.801Z,3.10
2023-04-10T16:32:34.354Z,3.10
2023-04-10T16:35:02.262Z,3.30
2023-04-10T16:37:34.364Z,3.23
2023-04-10T16:40:04.413Z,3.47
2023-04-10T16:42:32.328Z,3.30
2023-04-10T16:45:04.209Z,3.10
2023-04-10T16:47:32.191Z,4.27
2023-04-10T16:50:00.269Z,3.10
2023-04-10T16:52:28.465Z,3.43
2023-04-10T16:54:56.470Z,3.57
2023-04-10T16:57:26.008Z,3.53
2023-04-10T16:59:57.089Z,3.27
2023-04-10T17:02:25.603Z,3.30
2023-04-10T17:04:55.558Z,3.47
2023-04-10T17:07:23.939Z,3.20
2023-04-10T17:09:52.277Z,3.50
2023-04-10T17:12:20.148Z,3.87
2023-04-10T17:14:49.872Z,3.70
2023-04-10T17:17:17.864Z,3.33
2023-04-10T17:19:45.977Z,3.10
2023-04-10T17:22:16.565Z,3.50
2023-04-10T17:24:44.717Z,3.60
2023-04-10T17:27:13.134Z,3.90
2023-04-10T17:29:41.379Z,3.60
2023-04-10T17:32:10.868Z,3.60
2023-04-10T17:34:38.733Z,3.50
2023-04-10T17:37:06.634Z,4.13
2023-04-10T17:39:34.459Z,4.07
2023-04-10T17:42:02.434Z,3.70
2023-04-10T17:44:30.240Z,3.60
2023-04-10T17:46:58.372Z,3.77
2023-04-10T17:49:27.558Z,4.00
2023-04-10T17:51:55.329Z,3.70
2023-04-10T17:54:23.267Z,3.67
2023-04-10T17:56:53.317Z,4.10
2023-04-10T17:59:21.112Z,4.63
2023-04-10T18:01:49.127Z,4.23
2023-04-10T18:04:17.075Z,4.10
2023-04-10T18:06:46.481Z,4.00
2023-04-10T18:09:14.759Z,4.73
2023-04-10T18:11:42.616Z,4.43
2023-04-10T18:14:11.131Z,3.90
2023-04-10T18:16:38.974Z,4.10
2023-04-10T18:19:07.249Z,4.57
2023-04-10T18:21:35.701Z,4.40
2023-04-10T18:24:05.116Z,4.23
2023-04-10T18:26:34.813Z,4.40
2023-04-10T18:29:02.711Z,4.67
2023-04-10T18:31:30.908Z,5.07
2023-04-10T18:34:07.112Z,4.40
2023-04-10T18:36:36.486Z,4.47
2023-04-10T18:39:05.849Z,5.27
2023-04-10T18:41:33.828Z,4.27
2023-04-10T18:44:05.364Z,4.63
2023-04-10T18:46:33.794Z,4.67
2023-04-10T18:49:03.046Z,5.30
2023-04-10T18:51:33.908Z,4.83
2023-04-10T18:54:03.021Z,4.97
2023-04-10T18:56:32.610Z,5.17
2023-04-10T18:59:00.637Z,5.10
2023-04-10T19:01:28.935Z,4.43
2023-04-10T19:03:57.486Z,4.73
2023-04-10T19:06:26.852Z,5.47
2023-04-10T19:08:55.793Z,5.03
2023-04-10T19:11:23.791Z,4.97
2023-04-10T19:13:53.345Z,5.30
2023-04-10T19:16:21.423Z,4.87
2023-04-10T19:18:49.807Z,4.80
2023-04-10T19:21:17.579Z,4.77
2023-04-10T19:23:46.446Z,5.07
2023-04-10T19:26:14.213Z,5.53
2023-04-10T19:28:42.135Z,4.83
2023-04-10T19:31:11.567Z,5.50
2023-04-10T19:33:39.491Z,5.70
2023-04-10T19:36:08.613Z,4.90
2023-04-10T19:38:36.673Z,4.90
2023-04-10T19:41:04.528Z,4.80
2023-04-10T19:43:33.526Z,4.80
2023-04-10T19:46:01.276Z,4.60
2023-04-10T19:48:30.630Z,4.80
2023-04-10T19:51:07.261Z,4.60
2023-04-10T19:53:35.068Z,5.57
2023-04-10T19:56:03.043Z,4.60
2023-04-10T20:01:04.390Z,5.17
2023-04-10T20:03:34.139Z,5.27
2023-04-10T20:06:03.622Z,5.10
2023-04-10T20:08:31.763Z,4.70
2023-04-10T20:10:59.797Z,5.27
2023-04-10T20:13:27.602Z,5.30
2023-04-10T20:15:55.465Z,5.53
2023-04-10T20:18:23.330Z,5.63
2023-04-10T20:20:52.452Z,5.50
2023-04-10T20:23:20.283Z,5.20
2023-04-10T20:25:48.060Z,4.80
2023-04-10T20:28:17.334Z,5.13
2023-04-10T20:30:45.333Z,6.33
2023-04-10T20:33:13.169Z,4.87
2023-04-10T20:35:40.967Z,4.73
2023-04-10T20:38:10.145Z,5.07
2023-04-10T20:40:37.895Z,5.00
2023-04-10T20:43:10.845Z,5.13
2023-04-10T20:45:38.944Z,5.17
2023-04-10T20:48:07.647Z,5.10
2023-04-10T20:50:36.904Z,4.70
2023-04-10T20:53:04.746Z,4.67
2023-04-10T20:55:38.616Z,5.20
2023-04-10T20:58:07.245Z,4.73
2023-04-10T21:00:35.830Z,4.73
2023-04-10T21:03:03.876Z,4.73
2023-04-10T21:05:31.816Z,5.87
2023-04-10T21:07:59.679Z,4.67
2023-04-10T21:10:27.459Z,4.60
2023-04-10T21:12:56.688Z,4.97
2023-04-10T21:15:24.495Z,5.50
2023-04-10T21:17:52.436Z,5.37
2023-04-10T21:20:20.372Z,5.47
2023-04-10T21:22:48.180Z,5.40
2023-04-10T21:25:16.091Z,6.20
2023-04-10T21:27:43.911Z,5.70
2023-04-10T21:30:13.564Z,5.90
2023-04-10T21:32:41.439Z,5.83
2023-04-10T21:35:09.789Z,5.30
2023-04-10T21:37:37.564Z,5.73
2023-04-10T21:40:06.415Z,5.67
2023-04-10T21:42:34.206Z,5.13
2023-04-10T21:45:01.997Z,5.73
2023-04-10T21:47:31.156Z,5.73
2023-04-10T21:49:58.962Z,5.60
2023-04-10T21:52:26.777Z,5.30
2023-04-10T21:54:54.614Z,5.50
2023-04-10T21:57:22.432Z,5.00
2023-04-10T21:59:50.260Z,5.43
2023-04-10T22:02:18.160Z,4.60
2023-04-10T22:04:53.988Z,5.40
2023-04-10T22:07:22.779Z,5.07
2023-04-10T22:09:50.641Z,5.30
2023-04-10T22:12:18.412Z,7.80
2023-04-10T22:14:49.344Z,6.90
2023-04-10T22:17:17.151Z,4.90
2023-04-10T22:19:44.955Z,4.90
2023-04-10T22:22:14.068Z,5.20
2023-04-10T22:24:41.949Z,4.40
2023-04-10T22:27:09.726Z,4.60
2023-04-10T22:29:37.555Z,4.00
2023-04-10T22:32:05.544Z,4.00
2023-04-10T22:34:33.335Z,4.30
2023-04-10T22:37:01.078Z,4.33
2023-04-10T22:39:30.274Z,4.27
2023-04-10T22:41:58.017Z,4.10
2023-04-10T22:44:25.832Z,3.90
2023-04-10T22:46:53.638Z,3.80
2023-04-10T22:49:21.439Z,4.00
2023-04-10T22:51:49.319Z,3.63
2023-04-10T22:54:17.113Z,4.00
2023-04-10T22:56:46.274Z,4.07
2023-04-10T22:59:14.099Z,3.70
2023-04-10T23:01:41.974Z,4.63
2023-04-10T23:04:09.849Z,3.50
2023-04-10T23:06:37.630Z,3.40
2023-04-10T23:09:05.508Z,3.50
2023-04-10T23:11:33.325Z,3.67
2023-04-10T23:14:02.478Z,3.53
2023-04-10T23:16:30.296Z,3.30
2023-04-10T23:18:58.059Z,3.67
2023-04-10T23:21:27.081Z,3.87
2023-04-10T23:23:54.858Z,4.50
2023-04-10T23:26:22.723Z,3.60
2023-04-10T23:28:50.591Z,3.20
2023-04-10T23:31:19.735Z,3.53
2023-04-10T23:33:47.557Z,3.53
2023-04-10T23:36:15.504Z,3.93
2023-04-10T23:38:43.388Z,3.60
2023-04-10T23:41:11.154Z,3.57
2023-04-10T23:43:39.045Z,3.37
2023-04-10T23:46:07.353Z,3.37
2023-04-10T23:48:36.522Z,3.57
2023-04-10T23:51:05.350Z,3.13
2023-04-10T23:53:33.511Z,3.10
2023-04-10T23:56:01.465Z,3.00
2023-04-10T23:58:29.239Z,3.13
